ADDS METAR Data INFO
IDs: Format: Raw Decoded Include TAF

Data at: 1041 UTC 19 Oct 2017

PAHP 191003Z AUTO 32024KT 8SM -RA FEW017 SCT030 BKN041 01/M01 A2969 RMK AO2 PK WND 32031/0958 RAB02 P0000 FZRANO
PAHP 190952Z AUTO 32025G29KT 10SM SCT025 BKN033 02/M02 A2968 RMK AO2 PK WND 33029/0951 RAB21E32SNE01 P0000 FZRANO
PAHP 190858Z AUTO 34013KT 8SM -SN FEW007 BKN013 BKN025 01/M01 A2968 RMK AO2 P0000 FZRANO
PAHP 190856Z AUTO 34013KT 6SM -SN BR SCT013 BKN025 BKN032 01/M01 A2968 RMK AO2 PK WND 31032/0834 RAB19E40SNB24 SLP090 P0000 60000 T00061011 400330000 53011 FZRANO
PAHP 190756Z AUTO 34021KT 10SM FEW023 SCT055 01/M03 A2966 RMK AO2 PK WND 33029/0726 UPE0659RAB0659E04 SLP081 P0000 T00111028 FZRANO
PAHP 190749Z AUTO 34020KT 10SM FEW021 SCT028 BKN055 01/M02 A2966 RMK AO2 PK WND 33029/0726 UPE0659RAB0659E04 P0000 FZRANO
PAHP 190726Z AUTO 33021G29KT 10SM SCT007 BKN019 OVC029 01/M01 A2966 RMK AO2 PK WND 33029/0726 UPE0659RAB0659E04 P0000 FZRANO
PAHP 190656Z AUTO 35015G22KT 9SM UP OVC007 01/M01 A2967 RMK AO2 PK WND 32029/0626 RAB04E11UPB56SNB11E56 CIG 004V010 SLP084 P0000 T00061006 FZRANO
PAHP 190646Z AUTO 32012KT 3SM -SN BR BKN007 OVC012 00/M01 A2967 RMK AO2 PK WND 32029/0626 RAB04E11SNB11 CIG 004V011 P0000 FZRANO
PAHP 190622Z AUTO 31020G23KT 1 3/4SM -SN BR BKN007 OVC012 00/M01 A2967 RMK AO2 PK WND 34027/0557 VIS 1V3 RAB04E11SNB11 P0000 FZRANO
PAHP 190613Z AUTO 33022G26KT 2 1/2SM -SN BR BKN007 OVC015 01/M01 A2966 RMK AO2 PK WND 34027/0557 VIS 1V5 RAB04E11SNB11 CIG 005V011 P0000 FZRANO
PAHP 190602Z AUTO 34021KT 10SM SCT007 BKN012 OVC017 02/M01 A2966 RMK AO2 PK WND 34027/0557 FZRANO
PAHP 190556Z AUTO 34023KT 10SM SCT012 OVC019 02/M01 A2965 RMK AO2 PK WND 32031/0534 RAB05E29B47E54SNB29E47 SLP078 P0001 60001 T00171011 10028 20000 58003 FZRANO
PAHP 190536Z AUTO 31026G31KT 3SM -SN BR BKN021 01/00 A2966 RMK AO2 PK WND 32031/0534 RAB05E29SNB29 P0001 FZRANO
PAHP 190531Z AUTO 31020G28KT 1 3/4SM -SN BR BKN021 BKN031 BKN065 01/M01 A2966 RMK AO2 PK WND 33028/0525 VIS 1V5 RAB05E29SNB29 P0000 FZRANO
PAHP 190523Z AUTO 34020G24KT 6SM -RA BR BKN021 BKN031 BKN065 02/M01 A2966 RMK AO2 PK WND 33026/0512 RAB05 P0000 FZRANO
PAHP 190456Z AUTO 32019KT 10SM FEW030 SCT038 02/M02 A2967 RMK AO2 PK WND 31031/0435 UPB38E40RAB40E50 SLP084 P0000 T00171017 FZRANO
PAHP 190356Z AUTO 32022KT 10SM FEW006 SCT024 SCT095 02/M02 A2966 RMK AO2 PK WND 33028/0304 SNE24 SLP081 P0000 T00171017 FZRANO
PAHP 190354Z AUTO 32019KT 10SM FEW006 SCT021 SCT095 02/M02 A2966 RMK AO2 PK WND 33028/0304 SNE24 P0000 FZRANO
PAHP 190323Z AUTO 32020G24KT 9SM -SN FEW006 BKN015 BKN023 01/M01 A2966 RMK AO2 PK WND 33028/0304 P0000 FZRANO
PAHP 190315Z AUTO 32019G24KT 2SM -SN BR SCT006 BKN015 01/M01 A2966 RMK AO2 PK WND 33028/0304 VIS 3/4V5 P0000 FZRANO
PAHP 190305Z AUTO 33024G28KT 1 3/4SM -SN BR FEW006 SCT050 01/M01 A2966 RMK AO2 PK WND 33028/0304 VIS 3/4V4 P0000 FZRANO
PAHP 190259Z AUTO 33020G25KT 3SM -SN BR FEW006 SCT039 SCT050 01/M01 A2966 RMK AO2 P0000 FZRANO
PAHP 190256Z AUTO 33019G28KT 2 1/2SM -SN BR FEW015 SCT040 BKN050 01/M01 A2966 RMK AO2 PK WND 32031/0243 RAB17E49SNB49 SLP082 P0000 60000 T00061006 53000 FZRANO
PAHP 190203Z AUTO 33021KT 10SM FEW005 SCT031 BKN095 02/M01 A2965 RMK AO2 FZRANO
PAHP 190156Z AUTO 33017KT 10SM FEW005 BKN016 BKN031 02/M01 A2966 RMK AO2 PK WND 32028/0129 UPB22E25RAB25E42 SLP081 P0000 T00171011 FZRANO
PAHP 190149Z AUTO 33021KT 10SM FEW005 BKN018 OVC095 02/M02 A2965 RMK AO2 PK WND 32028/0129 UPB22E25RAB25E42 P0000 FZRANO
PAHP 190056Z AUTO 31020KT 10SM FEW024 BKN034 BKN065 03/M02 A2966 RMK AO2 PK WND 31027/0048 SLP080 T00281022
PAHP 182356Z AUTO 32019KT 10SM FEW036 03/M03 A2966 RMK AO2 PK WND 33026/2300 RAE04 SLP081 P0000 60004 T00281028 10028 20006 55002
PAHP 182256Z AUTO 33018G22KT 9SM -RA BKN038 BKN047 OVC070 02/M01 A2965 RMK AO2 PK WND 33030/2229 RAB2157E07B25E27B54UPB23E25SNE2157B27E54 SLP079 P0000 T00171011 FZRANO
PAHP 182251Z AUTO 34020KT 9SM -SN FEW032 BKN047 OVC070 01/M01 A2965 RMK AO2 PK WND 33030/2229 RAB2157E07B25E27UPB23E25SNE2157B27 P0000 FZRANO
PAHP 182242Z AUTO 36013KT 1SM -SN BR FEW034 BKN041 OVC048 01/M01 A2966 RMK AO2 PK WND 33030/2229 RAB2157E07B25E27UPB23E25SNE2157B27 P0000 FZRANO
PAHP 182239Z AUTO 36014KT 1/2SM -SN FG SCT034 BKN043 OVC050 01/M01 A2966 RMK AO2 PK WND 33030/2229 RAB2157E07B25E27UPB23E25SNE2157B27 P0000 FZRANO
PAHP 182232Z AUTO 32023G30KT 3/4SM -SN BR FEW015 BKN037 OVC047 01/M01 A2967 RMK AO2 PK WND 33030/2229 VIS 1/4V5 RAB2157E07B25E27UPB23E25SNE2157B27 P0000 FZRANO
PAHP 182229Z AUTO 33026G30KT 1 1/2SM -SN BR FEW017 SCT033 BKN047 01/M01 A2966 RMK AO2 PK WND 33030/2229 VIS 1/2V5 RAB2157E07B25E27UPB23E25SNE2157B27 P0000 FZRANO
PAHP 182225Z AUTO 32025G30KT 5SM RA BR FEW010 SCT018 BKN047 01/M01 A2967 RMK AO2 PK WND 32030/2225 RAB2157E07B25UPB23E25SNE2157 P0000 FZRANO
PAHP 182213Z AUTO 34011KT 10SM SCT011 BKN015 OVC041 01/M01 A2967 RMK AO2 RAB2157E07SNE2157 P0000 FZRANO
PAHP 182156Z AUTO 33013G22KT 9SM -SN BKN007 BKN011 OVC024 01/M01 A2967 RMK AO2 PK WND 35029/2135 RAE38UPB07E14SNB38 SLP084 P0000 T00061006 FZRANO
PAHP 182152Z AUTO 32015KT 4SM -SN BR BKN009 OVC024 01/M01 A2967 RMK AO2 PK WND 35029/2135 RAE38UPB07E14SNB38 CIG 007V013 P0000 FZRANO
PAHP 182141Z AUTO 35019KT 3/4SM -SN BR BKN009 BKN014 BKN024 01/M01 A2967 RMK AO2 PK WND 35029/2135 RAE38UPB07E14SNB38 CIG 006V013 P0000 FZRANO
PAHP 182136Z AUTO 35025KT 2 1/2SM +RA BR SCT009 SCT014 BKN024 01/00 A2965 RMK AO2 PK WND 35029/2135 UPB07E14 P0000 FZRANO
PAHP 182056Z AUTO 31018KT 6SM RA BR BKN010 01/00 A2967 RMK AO2 RAE05B47UPB22E35SNB05E22B35E47 CIG 006V014 SLP084 P0002 60004 T00060000 50006 FZRANO
PAHP 182041Z AUTO 33013KT 3SM -SN BR FEW007 BKN012 01/00 A2967 RMK AO2 RAE05UPB22E35SNB05E22B35 P0002 FZRANO
PAHP 182035Z AUTO 32013KT 2 1/2SM -SN BR BKN010 BKN015 01/M01 A2967 RMK AO2 VIS 1 1/2V4 RAE05UPB22E35SNB05E22B35 CIG 007V013 P0002 FZRANO
PAHP 182029Z AUTO 32011KT 4SM UP BR SCT008 BKN015 BKN024 01/M01 A2967 RMK AO2 RAE05UPB22SNB05E22 P0002 FZRANO
PAHP 182021Z AUTO 32006KT 2SM -SN BR SCT008 BKN013 BKN024 00/M01 A2967 RMK AO2 VIS 1 1/4V4 RAE05SNB05 P0001 FZRANO
PAHP 182006Z AUTO 34012KT 1 3/4SM -SN BR FEW015 SCT024 01/M01 A2967 RMK AO2 RAE05SNB05 P0001 FZRANO
PAHP 181954Z AUTO 35007KT 4SM -RA BR FEW010 SCT022 SCT027 01/M01 A2967 RMK AO2 RAB05SNE05B39E50 SLP086 P0000 T00061006 FZRANO
PAHP 181941Z AUTO 36009KT 2 1/2SM -SN BR FEW008 SCT013 BKN020 01/M01 A2967 RMK AO2 RAB05E39SNE05B39 P0000 FZRANO
PAHP 181925Z AUTO 01009KT 4SM -RA BR SCT006 BKN013 01/M01 A2966 RMK AO2 RAB05SNE05 P0000 FZRANO
PAHP 181900Z AUTO 32011KT 3SM -SN BR FEW008 SCT025 01/M01 A2966 RMK AO2 P0000 FZRANO
PAHP 181856Z AUTO 31009KT 1 1/2SM -SN BR FEW008 01/M01 A2966 RMK AO2 RAE29SNB29 SLP081 P0002 T00061006 FZRANO
PAHP 181822Z AUTO 31016KT 9SM -RA FEW016 01/M01 A2965 RMK AO2 P0000 FZRANO
PAHP 181756Z AUTO 32010KT 3SM -RA BR SCT009 BKN016 BKN022 01/M01 A2965 RMK AO2 UPB00E07RAB07E16B38SNB42E56 SLP078 P0000 60000 T00061006 10028 20006 53003 FZRANO
PAHP 181751Z AUTO 33011KT 2SM -SN BR SCT009 BKN014 OVC065 01/M01 A2965 RMK AO2 UPB00E07RAB07E16B38E42SNB42 P0000 FZRANO
PAHP 181728Z AUTO 32020KT 10SM FEW008 BKN022 BKN042 01/00 A2964 RMK AO2 UPB00E07RAB07E16 P0000 FZRANO
PAHP 181656Z AUTO 34016KT 10SM FEW021 SCT034 02/M01 A2964 RMK AO2 PK WND 33028/1627 UPB30E42 SLP073 P0000 T00221006 FZRANO
PAHP 181556Z AUTO 32018KT 10SM FEW033 02/M02 A2964 RMK AO2 UPB44E54 SLP073 P0000 T00221022 FZRANO
PAHP 181454Z AUTO 36005KT 10SM SCT025 01/M01 A2964 RMK AO2 RAB1358E07SNB07E21 P0000 FZRANO
PAHP 181413Z AUTO 35009KT 4SM -SN BR FEW007 SCT016 BKN035 01/M01 A2965 RMK AO2 RAB1358E07SNB07 P0000 FZRANO
PAHP 181356Z AUTO 35015KT 10SM CLR 01/M01 A2965 RMK AO2 RAE1258 SLP076 P0000 T00111006 FZRANO
PAHP 181304Z AUTO 32012KT 10SM SCT014 02/00 A2965 RMK AO2 RAE1258 P0000 FZRANO
PAHP 181256Z AUTO 31014KT 10SM -RA BKN014 BKN025 02/00 A2965 RMK AO2 RAB1157 SLP077 P0000 T00170000 FZRANO
PAHP 181247Z AUTO 31019G22KT 10SM -RA BKN014 BKN018 BKN025 02/00 A2965 RMK AO2 RAB1157 P0000 FZRANO
PAHP 181230Z AUTO 33006KT 10SM -RA SCT014 SCT018 BKN024 01/00 A2965 RMK AO2 RAB1157 P0000 FZRANO
PAHP 181219Z AUTO 31006KT 8SM -RA FEW014 SCT024 BKN034 01/M01 A2965 RMK AO2 RAB1157 P0000 FZRANO
PAHP 181156Z AUTO 34013KT 10SM FEW014 SCT019 BKN025 02/00 A2964 RMK AO2 SLP075 70003 T00220000 10033 20006 52002 FZRANO
PAHP 181056Z AUTO 32018KT 10SM SCT024 SCT036 BKN043 03/M02 A2964 RMK AO2 SLP074 T00281017
PAHP 180956Z AUTO 33015KT 10SM FEW030 BKN042 BKN050 02/M01 A2964 RMK AO2 WSHFT 0856 SLP073 T00171006 FZRANO
PAHP 180916Z AUTO 01009KT 10SM FEW025 OVC040 01/M01 A2964 RMK AO2 WSHFT 0856 FZRANO
PAHP 180856Z AUTO 32015KT 10SM OVC042 03/M01 A2963 RMK AO2 SLP073 T00331011 400441028 53006
PAHP 180656Z AUTO 35012G19KT 10SM SCT027 OVC035 03/M02 A2962 RMK AO2 SLP067 T00281017
PAHP 180429Z AUTO 36013KT 10SM SCT020 OVC041 03/M01 A2960 RMK AO2 UPE0358 P0000
PAHP 180333Z AUTO 35011KT 10SM SCT018 BKN025 03/01 A2959 RMK AO2 UPB16E28 P0000
PAHP 180305Z AUTO 35015KT 10SM SCT024 02/01 A2958 RMK AO2 FZRANO
PAHP 180256Z AUTO 34013KT 10SM BKN022 02/01 A2958 RMK AO2 RAE16 SLP053 P0000 60002 T00220011 53005 FZRANO
PAHP 180133Z AUTO 31013KT 10SM FEW011 BKN017 04/02 A2956 RMK AO2 RAE26 P0002
PAHP 180126Z AUTO 32012KT 10SM BKN014 BKN020 04/02 A2956 RMK AO2 RAE26 P0002
PAHP 180056Z AUTO 31013KT 10SM -RA FEW032 03/01 A2956 RMK AO2 RAB54 SLP047 P0000 T00330011
PAHP 172356Z AUTO 30004KT 10SM CLR 04/01 A2956 RMK AO2 SLP048 60001 T00390011 10044 21022 53001
PAHP 172256Z AUTO 00000KT 10SM FEW018 03/01 A2956 RMK AO2 RAB2159E31 SLP046 P0001 T00280011
PAHP 172246Z AUTO 00000KT 10SM FEW018 03/01 A2956 RMK AO2 RAB2159E31 P0001